sensor_id;sensor_type;location;lat;lon;timestamp;P1;durP1;ratioP1;P2;durP2;ratioP2
7158;SDS011;63175;52.374;13.132;2024-01-15T00:01:41;8.00;;;5.80;;
7158;SDS011;63175;52.374;13.132;2024-01-15T00:04:10;11.50;;;6.97;;
7158;SDS011;63175;52.374;13.132;2024-01-15T00:06:37;7.40;;;5.87;;
7158;SDS011;63175;52.374;13.132;2024-01-15T00:09:04;8.67;;;7.00;;
7158;SDS011;63175;52.374;13.132;2024-01-15T00:11:31;8.00;;;5.80;;
7158;SDS011;63175;52.374;13.132;2024-01-15T00:13:58;9.93;;;6.80;;
7158;SDS011;63175;52.374;13.132;2024-01-15T00:16:25;8.17;;;6.20;;
7158;SDS011;63175;52.374;13.132;2024-01-15T00:18:52;9.40;;;6.40;;
7158;SDS011;63175;52.374;13.132;2024-01-15T00:21:20;7.50;;;6.03;;
7158;SDS011;63175;52.374;13.132;2024-01-15T00:23:48;6.97;;;5.57;;
7158;SDS011;63175;52.374;13.132;2024-01-15T00:26:15;8.00;;;7.00;;
7158;SDS011;63175;52.374;13.132;2024-01-15T00:28:42;11.00;;;6.43;;
7158;SDS011;63175;52.374;13.132;2024-01-15T00:31:08;7.53;;;6.30;;
7158;SDS011;63175;52.374;13.132;2024-01-15T00:33:35;9.43;;;6.03;;
7158;SDS011;63175;52.374;13.132;2024-01-15T00:36:02;7.50;;;5.70;;
7158;SDS011;63175;52.374;13.132;2024-01-15T00:38:31;6.87;;;5.67;;
7158;SDS011;63175;52.374;13.132;2024-01-15T00:40:58;7.20;;;6.33;;
7158;SDS011;63175;52.374;13.132;2024-01-15T00:43:25;7.23;;;5.80;;
7158;SDS011;63175;52.374;13.132;2024-01-15T00:45:51;9.17;;;6.17;;
7158;SDS011;63175;52.374;13.132;2024-01-15T00:48:18;6.47;;;5.80;;
7158;SDS011;63175;52.374;13.132;2024-01-15T00:50:45;7.60;;;5.87;;
7158;SDS011;63175;52.374;13.132;2024-01-15T00:53:12;8.17;;;6.43;;
7158;SDS011;63175;52.374;13.132;2024-01-15T00:55:40;7.77;;;5.70;;
7158;SDS011;63175;52.374;13.132;2024-01-15T00:58:07;10.57;;;5.97;;
7158;SDS011;63175;52.374;13.132;2024-01-15T01:00:34;9.77;;;6.50;;
7158;SDS011;63175;52.374;13.132;2024-01-15T01:03:01;6.70;;;5.43;;
7158;SDS011;63175;52.374;13.132;2024-01-15T01:05:27;6.53;;;5.50;;
7158;SDS011;63175;52.374;13.132;2024-01-15T01:07:54;6.53;;;5.73;;
7158;SDS011;63175;52.374;13.132;2024-01-15T01:10:21;8.67;;;5.87;;
7158;SDS011;63175;52.374;13.132;2024-01-15T01:12:49;9.43;;;6.43;;
7158;SDS011;63175;52.374;13.132;2024-01-15T01:15:16;8.30;;;6.00;;
7158;SDS011;63175;52.374;13.132;2024-01-15T01:17:43;8.87;;;6.87;;
7158;SDS011;63175;52.374;13.132;2024-01-15T01:20:10;7.20;;;6.50;;
7158;SDS011;63175;52.374;13.132;2024-01-15T01:22:37;9.23;;;6.87;;
7158;SDS011;63175;52.374;13.132;2024-01-15T01:25:04;14.00;;;7.13;;
7158;SDS011;63175;52.374;13.132;2024-01-15T01:27:31;8.83;;;7.13;;
7158;SDS011;63175;52.374;13.132;2024-01-15T01:30:00;10.80;;;6.97;;
7158;SDS011;63175;52.374;13.132;2024-01-15T01:32:26;10.30;;;7.13;;
7158;SDS011;63175;52.374;13.132;2024-01-15T01:34:53;10.47;;;8.20;;
7158;SDS011;63175;52.374;13.132;2024-01-15T01:37:20;13.20;;;7.17;;
7158;SDS011;63175;52.374;13.132;2024-01-15T01:39:47;11.63;;;7.27;;
7158;SDS011;63175;52.374;13.132;2024-01-15T01:42:14;12.17;;;6.67;;
7158;SDS011;63175;52.374;13.132;2024-01-15T01:44:41;8.77;;;6.93;;
7158;SDS011;63175;52.374;13.132;2024-01-15T01:47:10;8.40;;;6.87;;
7158;SDS011;63175;52.374;13.132;2024-01-15T01:49:37;8.67;;;6.60;;
7158;SDS011;63175;52.374;13.132;2024-01-15T01:52:05;12.93;;;7.40;;
7158;SDS011;63175;52.374;13.132;2024-01-15T01:54:32;8.10;;;6.50;;
7158;SDS011;63175;52.374;13.132;2024-01-15T01:57:00;9.03;;;6.93;;
7158;SDS011;63175;52.374;13.132;2024-01-15T01:59:29;9.80;;;7.23;;
7158;SDS011;63175;52.374;13.132;2024-01-15T02:01:58;6.67;;;5.40;;
7158;SDS011;63175;52.374;13.132;2024-01-15T02:04:29;7.60;;;5.90;;
7158;SDS011;63175;52.374;13.132;2024-01-15T02:06:57;11.07;;;6.40;;
7158;SDS011;63175;52.374;13.132;2024-01-15T02:09:25;6.90;;;5.50;;
7158;SDS011;63175;52.374;13.132;2024-01-15T02:11:52;10.40;;;6.67;;
7158;SDS011;63175;52.374;13.132;2024-01-15T02:14:19;9.23;;;6.20;;
7158;SDS011;63175;52.374;13.132;2024-01-15T02:16:46;7.33;;;5.03;;
7158;SDS011;63175;52.374;13.132;2024-01-15T02:19:14;10.23;;;6.17;;
7158;SDS011;63175;52.374;13.132;2024-01-15T02:21:43;8.33;;;5.60;;
7158;SDS011;63175;52.374;13.132;2024-01-15T02:24:11;6.80;;;5.53;;
7158;SDS011;63175;52.374;13.132;2024-01-15T02:26:39;10.10;;;5.87;;
7158;SDS011;63175;52.374;13.132;2024-01-15T02:29:06;8.60;;;6.17;;
7158;SDS011;63175;52.374;13.132;2024-01-15T02:31:33;7.13;;;5.87;;
7158;SDS011;63175;52.374;13.132;2024-01-15T02:34:01;7.00;;;5.17;;
7158;SDS011;63175;52.374;13.132;2024-01-15T02:36:28;9.07;;;6.10;;
7158;SDS011;63175;52.374;13.132;2024-01-15T02:38:55;7.57;;;6.10;;
7158;SDS011;63175;52.374;13.132;2024-01-15T02:41:23;6.50;;;5.07;;
7158;SDS011;63175;52.374;13.132;2024-01-15T02:43:50;6.83;;;5.87;;
7158;SDS011;63175;52.374;13.132;2024-01-15T02:46:16;9.90;;;6.20;;
7158;SDS011;63175;52.374;13.132;2024-01-15T02:48:43;6.13;;;5.20;;
7158;SDS011;63175;52.374;13.132;2024-01-15T02:51:10;7.17;;;5.43;;
7158;SDS011;63175;52.374;13.132;2024-01-15T02:53:37;8.70;;;6.27;;
7158;SDS011;63175;52.374;13.132;2024-01-15T02:56:06;8.67;;;4.60;;
7158;SDS011;63175;52.374;13.132;2024-01-15T02:58:34;7.57;;;5.00;;
7158;SDS011;63175;52.374;13.132;2024-01-15T03:01:01;6.70;;;4.90;;
7158;SDS011;63175;52.374;13.132;2024-01-15T03:03:28;13.10;;;5.30;;
7158;SDS011;63175;52.374;13.132;2024-01-15T03:05:55;5.83;;;5.23;;
7158;SDS011;63175;52.374;13.132;2024-01-15T03:08:22;6.57;;;4.83;;
7158;SDS011;63175;52.374;13.132;2024-01-15T03:10:49;4.60;;;4.20;;
7158;SDS011;63175;52.374;13.132;2024-01-15T03:13:16;13.80;;;4.47;;
7158;SDS011;63175;52.374;13.132;2024-01-15T03:15:45;8.57;;;4.40;;
7158;SDS011;63175;52.374;13.132;2024-01-15T03:18:12;6.87;;;4.87;;
7158;SDS011;63175;52.374;13.132;2024-01-15T03:20:39;8.80;;;5.63;;
7158;SDS011;63175;52.374;13.132;2024-01-15T03:23:06;7.67;;;4.53;;
7158;SDS011;63175;52.374;13.132;2024-01-15T03:25:33;8.73;;;4.07;;
7158;SDS011;63175;52.374;13.132;2024-01-15T03:28:00;5.77;;;4.27;;
7158;SDS011;63175;52.374;13.132;2024-01-15T03:30:26;10.63;;;4.40;;
7158;SDS011;63175;52.374;13.132;2024-01-15T03:32:55;9.63;;;5.27;;
7158;SDS011;63175;52.374;13.132;2024-01-15T03:35:21;8.33;;;4.83;;
7158;SDS011;63175;52.374;13.132;2024-01-15T03:37:48;6.40;;;4.43;;
7158;SDS011;63175;52.374;13.132;2024-01-15T03:40:15;6.53;;;4.10;;
7158;SDS011;63175;52.374;13.132;2024-01-15T03:42:42;5.40;;;4.27;;
7158;SDS011;63175;52.374;13.132;2024-01-15T03:45:09;5.10;;;4.40;;
7158;SDS011;63175;52.374;13.132;2024-01-15T03:47:36;9.70;;;4.10;;
7158;SDS011;63175;52.374;13.132;2024-01-15T03:50:04;7.70;;;4.70;;
7158;SDS011;63175;52.374;13.132;2024-01-15T03:52:31;4.87;;;4.10;;
7158;SDS011;63175;52.374;13.132;2024-01-15T03:54:58;5.23;;;4.10;;
7158;SDS011;63175;52.374;13.132;2024-01-15T03:57:25;6.30;;;3.90;;
7158;SDS011;63175;52.374;13.132;2024-01-15T03:59:52;6.93;;;3.70;;
7158;SDS011;63175;52.374;13.132;2024-01-15T04:02:19;4.87;;;3.60;;
7158;SDS011;63175;52.374;13.132;2024-01-15T04:04:45;6.33;;;3.83;;
7158;SDS011;63175;52.374;13.132;2024-01-15T04:07:14;4.93;;;3.17;;
7158;SDS011;63175;52.374;13.132;2024-01-15T04:09:40;11.37;;;4.47;;
7158;SDS011;63175;52.374;13.132;2024-01-15T04:12:07;6.10;;;3.67;;
7158;SDS011;63175;52.374;13.132;2024-01-15T04:14:34;5.40;;;3.90;;
7158;SDS011;63175;52.374;13.132;2024-01-15T04:17:01;6.33;;;3.60;;
7158;SDS011;63175;52.374;13.132;2024-01-15T04:19:28;4.83;;;3.20;;
7158;SDS011;63175;52.374;13.132;2024-01-15T04:21:55;12.87;;;2.93;;
7158;SDS011;63175;52.374;13.132;2024-01-15T04:24:23;4.23;;;3.40;;
7158;SDS011;63175;52.374;13.132;2024-01-15T04:26:50;4.93;;;3.00;;
7158;SDS011;63175;52.374;13.132;2024-01-15T04:29:17;6.53;;;3.17;;
7158;SDS011;63175;52.374;13.132;2024-01-15T04:31:43;3.60;;;3.10;;
7158;SDS011;63175;52.374;13.132;2024-01-15T04:34:10;7.67;;;3.20;;
7158;SDS011;63175;52.374;13.132;2024-01-15T04:36:38;5.50;;;3.27;;
7158;SDS011;63175;52.374;13.132;2024-01-15T04:39:06;6.20;;;3.53;;
7158;SDS011;63175;52.374;13.132;2024-01-15T04:41:34;6.87;;;2.87;;
7158;SDS011;63175;52.374;13.132;2024-01-15T04:44:01;3.77;;;3.00;;
7158;SDS011;63175;52.374;13.132;2024-01-15T04:46:27;3.00;;;2.70;;
7158;SDS011;63175;52.374;13.132;2024-01-15T04:48:54;3.90;;;3.27;;
7158;SDS011;63175;52.374;13.132;2024-01-15T04:51:21;5.13;;;2.80;;
7158;SDS011;63175;52.374;13.132;2024-01-15T04:53:48;2.83;;;2.47;;
7158;SDS011;63175;52.374;13.132;2024-01-15T04:56:15;10.93;;;2.57;;
7158;SDS011;63175;52.374;13.132;2024-01-15T04:58:43;4.60;;;2.50;;
7158;SDS011;63175;52.374;13.132;2024-01-15T05:01:10;4.07;;;2.60;;
7158;SDS011;63175;52.374;13.132;2024-01-15T05:03:37;4.63;;;2.40;;
7158;SDS011;63175;52.374;13.132;2024-01-15T05:06:04;4.20;;;2.40;;
7158;SDS011;63175;52.374;13.132;2024-01-15T05:08:31;5.80;;;2.97;;
7158;SDS011;63175;52.374;13.132;2024-01-15T05:10:58;4.73;;;2.30;;
7158;SDS011;63175;52.374;13.132;2024-01-15T05:13:25;7.97;;;2.60;;
7158;SDS011;63175;52.374;13.132;2024-01-15T05:15:53;5.80;;;2.60;;
7158;SDS011;63175;52.374;13.132;2024-01-15T05:18:20;4.93;;;2.10;;
7158;SDS011;63175;52.374;13.132;2024-01-15T05:20:47;5.03;;;2.43;;
7158;SDS011;63175;52.374;13.132;2024-01-15T05:23:13;4.87;;;2.00;;
7158;SDS011;63175;52.374;13.132;2024-01-15T05:25:40;4.57;;;2.20;;
7158;SDS011;63175;52.374;13.132;2024-01-15T05:28:07;6.20;;;2.87;;
7158;SDS011;63175;52.374;13.132;2024-01-15T05:30:34;3.00;;;2.70;;
7158;SDS011;63175;52.374;13.132;2024-01-15T05:33:02;7.93;;;2.63;;
7158;SDS011;63175;52.374;13.132;2024-01-15T05:35:30;3.73;;;2.50;;
7158;SDS011;63175;52.374;13.132;2024-01-15T05:37:56;3.23;;;1.90;;
7158;SDS011;63175;52.374;13.132;2024-01-15T05:40:23;5.83;;;2.57;;
7158;SDS011;63175;52.374;13.132;2024-01-15T05:42:50;2.80;;;2.20;;
7158;SDS011;63175;52.374;13.132;2024-01-15T05:45:17;5.80;;;2.23;;
7158;SDS011;63175;52.374;13.132;2024-01-15T05:47:44;6.23;;;2.07;;
7158;SDS011;63175;52.374;13.132;2024-01-15T05:50:12;8.23;;;2.27;;
7158;SDS011;63175;52.374;13.132;2024-01-15T05:52:39;4.30;;;2.50;;
7158;SDS011;63175;52.374;13.132;2024-01-15T05:55:06;8.73;;;2.70;;
7158;SDS011;63175;52.374;13.132;2024-01-15T05:57:34;4.40;;;2.00;;
7158;SDS011;63175;52.374;13.132;2024-01-15T06:00:03;7.83;;;2.50;;
7158;SDS011;63175;52.374;13.132;2024-01-15T06:02:30;8.20;;;2.50;;
7158;SDS011;63175;52.374;13.132;2024-01-15T06:04:57;2.20;;;1.83;;
7158;SDS011;63175;52.374;13.132;2024-01-15T06:07:25;4.03;;;2.03;;
7158;SDS011;63175;52.374;13.132;2024-01-15T06:09:52;6.03;;;2.13;;
7158;SDS011;63175;52.374;13.132;2024-01-15T06:12:19;4.77;;;1.73;;
7158;SDS011;63175;52.374;13.132;2024-01-15T06:14:45;2.60;;;1.40;;
7158;SDS011;63175;52.374;13.132;2024-01-15T06:17:12;2.90;;;1.40;;
7158;SDS011;63175;52.374;13.132;2024-01-15T06:19:39;5.10;;;1.80;;
7158;SDS011;63175;52.374;13.132;2024-01-15T06:22:06;6.07;;;1.70;;
7158;SDS011;63175;52.374;13.132;2024-01-15T06:24:34;6.67;;;1.77;;
7158;SDS011;63175;52.374;13.132;2024-01-15T06:27:01;7.17;;;1.70;;
7158;SDS011;63175;52.374;13.132;2024-01-15T06:29:28;10.60;;;1.97;;
7158;SDS011;63175;52.374;13.132;2024-01-15T06:31:55;1.90;;;1.70;;
7158;SDS011;63175;52.374;13.132;2024-01-15T06:34:21;11.37;;;2.03;;
7158;SDS011;63175;52.374;13.132;2024-01-15T06:36:48;5.33;;;1.33;;
7158;SDS011;63175;52.374;13.132;2024-01-15T06:39:15;6.27;;;1.80;;
7158;SDS011;63175;52.374;13.132;2024-01-15T06:41:43;5.23;;;1.80;;
7158;SDS011;63175;52.374;13.132;2024-01-15T06:44:10;6.00;;;1.50;;
7158;SDS011;63175;52.374;13.132;2024-01-15T06:46:41;3.57;;;1.30;;
7158;SDS011;63175;52.374;13.132;2024-01-15T06:49:08;15.00;;;1.40;;
7158;SDS011;63175;52.374;13.132;2024-01-15T06:51:35;4.30;;;1.50;;
7158;SDS011;63175;52.374;13.132;2024-01-15T06:54:02;5.27;;;1.13;;
7158;SDS011;63175;52.374;13.132;2024-01-15T06:56:29;5.23;;;1.23;;
7158;SDS011;63175;52.374;13.132;2024-01-15T06:58:57;2.93;;;1.43;;
7158;SDS011;63175;52.374;13.132;2024-01-15T07:01:24;7.67;;;2.27;;
7158;SDS011;63175;52.374;13.132;2024-01-15T07:03:51;3.57;;;2.17;;
7158;SDS011;63175;52.374;13.132;2024-01-15T07:06:18;2.60;;;1.20;;
7158;SDS011;63175;52.374;13.132;2024-01-15T07:08:45;5.43;;;1.47;;
7158;SDS011;63175;52.374;13.132;2024-01-15T07:11:12;7.90;;;1.73;;
7158;SDS011;63175;52.374;13.132;2024-01-15T07:13:39;3.20;;;1.30;;
7158;SDS011;63175;52.374;13.132;2024-01-15T07:16:07;3.47;;;1.30;;
7158;SDS011;63175;52.374;13.132;2024-01-15T07:18:34;7.70;;;1.23;;
7158;SDS011;63175;52.374;13.132;2024-01-15T07:21:01;2.60;;;1.00;;
7158;SDS011;63175;52.374;13.132;2024-01-15T07:23:30;5.90;;;1.63;;
7158;SDS011;63175;52.374;13.132;2024-01-15T07:25:57;9.53;;;1.40;;
7158;SDS011;63175;52.374;13.132;2024-01-15T07:28:24;12.40;;;1.97;;
7158;SDS011;63175;52.374;13.132;2024-01-15T07:30:51;4.87;;;1.23;;
7158;SDS011;63175;52.374;13.132;2024-01-15T07:33:19;2.80;;;1.20;;
7158;SDS011;63175;52.374;13.132;2024-01-15T07:35:46;3.63;;;1.27;;
7158;SDS011;63175;52.374;13.132;2024-01-15T07:38:13;3.60;;;1.33;;
7158;SDS011;63175;52.374;13.132;2024-01-15T07:40:39;13.93;;;3.03;;
7158;SDS011;63175;52.374;13.132;2024-01-15T07:43:06;7.63;;;1.93;;
7158;SDS011;63175;52.374;13.132;2024-01-15T07:45:33;5.30;;;1.50;;
7158;SDS011;63175;52.374;13.132;2024-01-15T07:48:00;4.63;;;1.20;;
7158;SDS011;63175;52.374;13.132;2024-01-15T07:50:29;5.40;;;1.30;;
7158;SDS011;63175;52.374;13.132;2024-01-15T07:52:56;11.03;;;1.63;;
7158;SDS011;63175;52.374;13.132;2024-01-15T07:55:23;5.67;;;2.27;;
7158;SDS011;63175;52.374;13.132;2024-01-15T07:57:50;9.60;;;1.73;;
7158;SDS011;63175;52.374;13.132;2024-01-15T08:00:18;5.67;;;1.47;;
7158;SDS011;63175;52.374;13.132;2024-01-15T08:02:46;4.30;;;1.27;;
7158;SDS011;63175;52.374;13.132;2024-01-15T08:05:13;15.57;;;2.30;;
7158;SDS011;63175;52.374;13.132;2024-01-15T08:07:41;8.50;;;3.20;;
7158;SDS011;63175;52.374;13.132;2024-01-15T08:10:08;8.00;;;1.40;;
7158;SDS011;63175;52.374;13.132;2024-01-15T08:12:35;5.37;;;1.33;;
7158;SDS011;63175;52.374;13.132;2024-01-15T08:15:03;7.77;;;1.40;;
7158;SDS011;63175;52.374;13.132;2024-01-15T08:17:30;3.93;;;1.47;;
7158;SDS011;63175;52.374;13.132;2024-01-15T08:19:57;6.23;;;1.53;;
7158;SDS011;63175;52.374;13.132;2024-01-15T08:22:25;8.73;;;2.00;;
7158;SDS011;63175;52.374;13.132;2024-01-15T08:24:53;7.00;;;1.83;;
7158;SDS011;63175;52.374;13.132;2024-01-15T08:27:20;5.67;;;1.20;;
7158;SDS011;63175;52.374;13.132;2024-01-15T08:29:47;2.07;;;1.33;;
7158;SDS011;63175;52.374;13.132;2024-01-15T08:32:14;3.33;;;1.50;;
7158;SDS011;63175;52.374;13.132;2024-01-15T08:34:41;7.90;;;1.63;;
7158;SDS011;63175;52.374;13.132;2024-01-15T08:37:08;4.30;;;1.30;;
7158;SDS011;63175;52.374;13.132;2024-01-15T08:39:35;6.13;;;1.30;;
7158;SDS011;63175;52.374;13.132;2024-01-15T08:42:05;6.63;;;1.27;;
7158;SDS011;63175;52.374;13.132;2024-01-15T08:44:32;9.70;;;1.97;;
7158;SDS011;63175;52.374;13.132;2024-01-15T08:46:59;2.80;;;2.10;;
7158;SDS011;63175;52.374;13.132;2024-01-15T08:49:26;3.90;;;1.60;;
7158;SDS011;63175;52.374;13.132;2024-01-15T08:51:52;4.47;;;1.23;;
7158;SDS011;63175;52.374;13.132;2024-01-15T08:54:19;2.93;;;1.47;;
7158;SDS011;63175;52.374;13.132;2024-01-15T08:56:46;9.57;;;2.20;;
7158;SDS011;63175;52.374;13.132;2024-01-15T08:59:14;8.70;;;1.63;;
7158;SDS011;63175;52.374;13.132;2024-01-15T09:01:41;5.47;;;1.70;;
7158;SDS011;63175;52.374;13.132;2024-01-15T09:04:08;10.40;;;1.80;;
7158;SDS011;63175;52.374;13.132;2024-01-15T09:06:35;4.20;;;1.13;;
7158;SDS011;63175;52.374;13.132;2024-01-15T09:09:02;8.20;;;1.77;;
7158;SDS011;63175;52.374;13.132;2024-01-15T09:11:29;9.50;;;1.33;;
7158;SDS011;63175;52.374;13.132;2024-01-15T09:13:57;9.03;;;1.43;;
7158;SDS011;63175;52.374;13.132;2024-01-15T09:16:25;3.93;;;1.60;;
7158;SDS011;63175;52.374;13.132;2024-01-15T09:18:52;8.30;;;2.40;;
7158;SDS011;63175;52.374;13.132;2024-01-15T09:21:22;7.60;;;1.90;;
7158;SDS011;63175;52.374;13.132;2024-01-15T09:23:49;8.00;;;2.20;;
7158;SDS011;63175;52.374;13.132;2024-01-15T09:26:16;7.83;;;1.47;;
7158;SDS011;63175;52.374;13.132;2024-01-15T09:28:43;6.20;;;0.67;;
7158;SDS011;63175;52.374;13.132;2024-01-15T09:31:10;5.50;;;1.17;;
7158;SDS011;63175;52.374;13.132;2024-01-15T09:33:38;5.40;;;2.07;;
7158;SDS011;63175;52.374;13.132;2024-01-15T09:36:05;4.20;;;1.00;;
7158;SDS011;63175;52.374;13.132;2024-01-15T09:38:32;4.30;;;1.77;;
7158;SDS011;63175;52.374;13.132;2024-01-15T09:40:59;3.63;;;1.70;;
7158;SDS011;63175;52.374;13.132;2024-01-15T09:43:26;1.83;;;1.20;;
7158;SDS011;63175;52.374;13.132;2024-01-15T09:45:53;2.40;;;1.57;;
7158;SDS011;63175;52.374;13.132;2024-01-15T09:48:21;3.07;;;1.17;;
7158;SDS011;63175;52.374;13.132;2024-01-15T09:50:50;2.50;;;1.00;;
7158;SDS011;63175;52.374;13.132;2024-01-15T09:53:18;4.80;;;1.20;;
7158;SDS011;63175;52.374;13.132;2024-01-15T09:55:45;9.50;;;1.50;;
7158;SDS011;63175;52.374;13.132;2024-01-15T09:58:13;2.50;;;1.30;;
7158;SDS011;63175;52.374;13.132;2024-01-15T10:00:40;4.67;;;1.17;;
7158;SDS011;63175;52.374;13.132;2024-01-15T10:03:08;2.50;;;1.00;;
7158;SDS011;63175;52.374;13.132;2024-01-15T10:05:37;8.50;;;1.30;;
7158;SDS011;63175;52.374;13.132;2024-01-15T10:08:05;3.93;;;1.30;;
7158;SDS011;63175;52.374;13.132;2024-01-15T10:10:32;4.70;;;1.30;;
7158;SDS011;63175;52.374;13.132;2024-01-15T10:13:02;2.87;;;1.50;;
7158;SDS011;63175;52.374;13.132;2024-01-15T10:15:33;2.63;;;1.60;;
7158;SDS011;63175;52.374;13.132;2024-01-15T10:18:01;3.53;;;1.40;;
7158;SDS011;63175;52.374;13.132;2024-01-15T10:20:28;3.07;;;1.23;;
7158;SDS011;63175;52.374;13.132;2024-01-15T10:22:58;1.23;;;1.10;;
7158;SDS011;63175;52.374;13.132;2024-01-15T10:25:26;3.57;;;1.10;;
7158;SDS011;63175;52.374;13.132;2024-01-15T10:27:59;2.20;;;1.23;;
7158;SDS011;63175;52.374;13.132;2024-01-15T10:30:27;6.93;;;1.23;;
7158;SDS011;63175;52.374;13.132;2024-01-15T10:32:57;2.60;;;1.10;;
7158;SDS011;63175;52.374;13.132;2024-01-15T10:35:26;2.70;;;1.30;;
7158;SDS011;63175;52.374;13.132;2024-01-15T10:37:54;1.37;;;1.27;;
7158;SDS011;63175;52.374;13.132;2024-01-15T10:40:21;4.87;;;1.00;;
7158;SDS011;63175;52.374;13.132;2024-01-15T10:42:49;3.83;;;1.20;;
7158;SDS011;63175;52.374;13.132;2024-01-15T10:45:16;1.17;;;1.00;;
7158;SDS011;63175;52.374;13.132;2024-01-15T10:47:43;2.97;;;1.10;;
7158;SDS011;63175;52.374;13.132;2024-01-15T10:50:11;3.30;;;1.37;;
7158;SDS011;63175;52.374;13.132;2024-01-15T10:52:38;4.43;;;1.20;;
7158;SDS011;63175;52.374;13.132;2024-01-15T10:55:07;3.27;;;1.10;;
7158;SDS011;63175;52.374;13.132;2024-01-15T10:57:35;2.33;;;1.20;;
7158;SDS011;63175;52.374;13.132;2024-01-15T11:00:04;3.00;;;1.20;;
7158;SDS011;63175;52.374;13.132;2024-01-15T11:02:32;4.83;;;1.23;;
7158;SDS011;63175;52.374;13.132;2024-01-15T11:05:02;2.80;;;0.90;;
7158;SDS011;63175;52.374;13.132;2024-01-15T11:07:30;5.27;;;1.33;;
7158;SDS011;63175;52.374;13.132;2024-01-15T11:09:57;2.40;;;1.13;;
7158;SDS011;63175;52.374;13.132;2024-01-15T11:12:24;2.63;;;1.17;;
7158;SDS011;63175;52.374;13.132;2024-01-15T11:14:51;4.17;;;1.17;;
7158;SDS011;63175;52.374;13.132;2024-01-15T11:17:21;3.47;;;1.87;;
7158;SDS011;63175;52.374;13.132;2024-01-15T11:19:48;4.00;;;1.30;;
7158;SDS011;63175;52.374;13.132;2024-01-15T11:25:15;6.63;;;1.47;;
7158;SDS011;63175;52.374;13.132;2024-01-15T11:27:45;1.60;;;1.50;;
7158;SDS011;63175;52.374;13.132;2024-01-15T11:30:12;1.73;;;1.33;;
7158;SDS011;63175;52.374;13.132;2024-01-15T11:32:41;5.83;;;1.50;;
7158;SDS011;63175;52.374;13.132;2024-01-15T11:35:09;1.67;;;1.50;;
7158;SDS011;63175;52.374;13.132;2024-01-15T11:40:37;2.40;;;1.47;;
7158;SDS011;63175;52.374;13.132;2024-01-15T11:43:05;1.97;;;1.30;;
7158;SDS011;63175;52.374;13.132;2024-01-15T11:45:32;1.40;;;1.30;;
7158;SDS011;63175;52.374;13.132;2024-01-15T11:48:10;1.50;;;1.40;;
7158;SDS011;63175;52.374;13.132;2024-01-15T11:50:42;5.93;;;1.43;;
7158;SDS011;63175;52.374;13.132;2024-01-15T11:55:57;1.50;;;1.40;;
7158;SDS011;63175;52.374;13.132;2024-01-15T11:58:25;1.30;;;1.20;;
7158;SDS011;63175;52.374;13.132;2024-01-15T12:00:52;1.53;;;1.43;;
7158;SDS011;63175;52.374;13.132;2024-01-15T12:03:21;2.27;;;1.10;;
7158;SDS011;63175;52.374;13.132;2024-01-15T12:05:48;1.20;;;1.13;;
7158;SDS011;63175;52.374;13.132;2024-01-15T12:08:20;1.37;;;1.27;;
7158;SDS011;63175;52.374;13.132;2024-01-15T12:10:47;3.70;;;1.53;;
7158;SDS011;63175;52.374;13.132;2024-01-15T12:13:14;1.47;;;1.37;;
7158;SDS011;63175;52.374;13.132;2024-01-15T12:15:43;3.83;;;1.47;;
7158;SDS011;63175;52.374;13.132;2024-01-15T12:18:11;1.23;;;1.13;;
7158;SDS011;63175;52.374;13.132;2024-01-15T12:20:41;1.63;;;1.40;;
7158;SDS011;63175;52.374;13.132;2024-01-15T12:23:09;1.13;;;0.97;;
7158;SDS011;63175;52.374;13.132;2024-01-15T12:25:36;1.20;;;1.10;;
7158;SDS011;63175;52.374;13.132;2024-01-15T12:28:03;1.33;;;1.20;;
7158;SDS011;63175;52.374;13.132;2024-01-15T12:30:32;2.47;;;1.13;;
7158;SDS011;63175;52.374;13.132;2024-01-15T12:33:01;4.97;;;1.10;;
7158;SDS011;63175;52.374;13.132;2024-01-15T12:35:28;1.87;;;1.17;;
7158;SDS011;63175;52.374;13.132;2024-01-15T12:37:57;1.00;;;1.00;;
7158;SDS011;63175;52.374;13.132;2024-01-15T12:40:27;1.17;;;1.03;;
7158;SDS011;63175;52.374;13.132;2024-01-15T12:42:54;1.47;;;1.37;;
7158;SDS011;63175;52.374;13.132;2024-01-15T12:45:21;1.20;;;1.20;;
7158;SDS011;63175;52.374;13.132;2024-01-15T12:47:48;1.70;;;1.30;;
7158;SDS011;63175;52.374;13.132;2024-01-15T12:50:16;1.70;;;1.57;;
7158;SDS011;63175;52.374;13.132;2024-01-15T12:52:43;2.33;;;1.40;;
7158;SDS011;63175;52.374;13.132;2024-01-15T12:55:12;1.57;;;1.30;;
7158;SDS011;63175;52.374;13.132;2024-01-15T12:57:39;1.33;;;1.23;;
7158;SDS011;63175;52.374;13.132;2024-01-15T13:00:06;2.50;;;1.70;;
7158;SDS011;63175;52.374;13.132;2024-01-15T13:02:37;1.80;;;1.70;;
7158;SDS011;63175;52.374;13.132;2024-01-15T13:05:04;2.97;;;1.30;;
7158;SDS011;63175;52.374;13.132;2024-01-15T13:07:32;5.73;;;1.60;;
7158;SDS011;63175;52.374;13.132;2024-01-15T13:09:59;2.60;;;1.70;;
7158;SDS011;63175;52.374;13.132;2024-01-15T13:12:27;2.10;;;1.90;;
7158;SDS011;63175;52.374;13.132;2024-01-15T13:14:54;1.70;;;1.60;;
7158;SDS011;63175;52.374;13.132;2024-01-15T13:17:21;2.43;;;2.23;;
7158;SDS011;63175;52.374;13.132;2024-01-15T13:19:48;1.80;;;1.70;;
7158;SDS011;63175;52.374;13.132;2024-01-15T13:22:15;4.30;;;2.13;;
7158;SDS011;63175;52.374;13.132;2024-01-15T13:24:41;7.07;;;2.10;;
7158;SDS011;63175;52.374;13.132;2024-01-15T13:27:08;4.53;;;2.13;;
7158;SDS011;63175;52.374;13.132;2024-01-15T13:29:37;4.47;;;2.90;;
7158;SDS011;63175;52.374;13.132;2024-01-15T13:32:04;3.97;;;2.27;;
7158;SDS011;63175;52.374;13.132;2024-01-15T13:34:31;6.90;;;2.17;;
7158;SDS011;63175;52.374;13.132;2024-01-15T13:36:58;11.80;;;2.37;;
7158;SDS011;63175;52.374;13.132;2024-01-15T13:39:25;2.30;;;2.10;;
7158;SDS011;63175;52.374;13.132;2024-01-15T13:41:52;2.00;;;1.83;;
7158;SDS011;63175;52.374;13.132;2024-01-15T13:44:19;3.50;;;1.90;;
7158;SDS011;63175;52.374;13.132;2024-01-15T13:46:47;5.33;;;2.87;;
7158;SDS011;63175;52.374;13.132;2024-01-15T13:49:14;3.20;;;2.40;;
7158;SDS011;63175;52.374;13.132;2024-01-15T13:51:41;3.97;;;2.33;;
7158;SDS011;63175;52.374;13.132;2024-01-15T13:54:08;2.77;;;2.00;;
7158;SDS011;63175;52.374;13.132;2024-01-15T13:56:34;3.20;;;2.20;;
7158;SDS011;63175;52.374;13.132;2024-01-15T13:59:01;3.10;;;2.23;;
7158;SDS011;63175;52.374;13.132;2024-01-15T14:01:29;7.10;;;2.20;;
7158;SDS011;63175;52.374;13.132;2024-01-15T14:03:57;1.80;;;1.70;;
7158;SDS011;63175;52.374;13.132;2024-01-15T14:06:24;3.00;;;2.40;;
7158;SDS011;63175;52.374;13.132;2024-01-15T14:08:51;3.10;;;2.00;;
7158;SDS011;63175;52.374;13.132;2024-01-15T14:11:18;3.63;;;1.80;;
7158;SDS011;63175;52.374;13.132;2024-01-15T14:13:45;3.70;;;2.00;;
7158;SDS011;63175;52.374;13.132;2024-01-15T14:16:12;2.37;;;2.17;;
7158;SDS011;63175;52.374;13.132;2024-01-15T14:18:39;7.67;;;2.07;;
7158;SDS011;63175;52.374;13.132;2024-01-15T14:21:08;7.40;;;2.50;;
7158;SDS011;63175;52.374;13.132;2024-01-15T14:23:35;3.80;;;1.80;;
7158;SDS011;63175;52.374;13.132;2024-01-15T14:26:02;3.17;;;1.70;;
7158;SDS011;63175;52.374;13.132;2024-01-15T14:28:29;4.53;;;1.50;;
7158;SDS011;63175;52.374;13.132;2024-01-15T14:30:56;4.90;;;1.90;;
7158;SDS011;63175;52.374;13.132;2024-01-15T14:33:25;3.30;;;1.80;;
7158;SDS011;63175;52.374;13.132;2024-01-15T14:35:52;4.57;;;2.30;;
7158;SDS011;63175;52.374;13.132;2024-01-15T14:38:20;8.67;;;1.90;;
7158;SDS011;63175;52.374;13.132;2024-01-15T14:40:47;4.80;;;1.70;;
7158;SDS011;63175;52.374;13.132;2024-01-15T14:43:14;6.30;;;2.00;;
7158;SDS011;63175;52.374;13.132;2024-01-15T14:45:41;5.97;;;2.00;;
7158;SDS011;63175;52.374;13.132;2024-01-15T14:48:08;6.10;;;2.00;;
7158;SDS011;63175;52.374;13.132;2024-01-15T14:50:35;2.23;;;1.93;;
7158;SDS011;63175;52.374;13.132;2024-01-15T14:53:02;3.47;;;2.10;;
7158;SDS011;63175;52.374;13.132;2024-01-15T14:55:30;6.20;;;2.20;;